sensor_id;sensor_type;location;lat;lon;timestamp;pressure;altitude;pressure_sealevel;temperature;humidity
7052;BME280;3567;52.444;13.556;2023-02-19T00:01:30;101032.81;;;4.78;100.00
7052;BME280;3567;52.444;13.556;2023-02-19T00:04:18;101038.94;;;4.79;100.00
7052;BME280;3567;52.444;13.556;2023-02-19T00:06:45;101033.00;;;4.77;100.00
7052;BME280;3567;52.444;13.556;2023-02-19T00:09:12;101031.38;;;4.76;100.00
7052;BME280;3567;52.444;13.556;2023-02-19T00:11:38;101045.66;;;4.75;100.00
7052;BME280;3567;52.444;13.556;2023-02-19T00:14:04;101038.66;;;4.73;100.00
7052;BME280;3567;52.444;13.556;2023-02-19T00:16:38;101043.97;;;4.73;100.00
7052;BME280;3567;52.444;13.556;2023-02-19T00:19:07;101047.66;;;4.72;100.00
7052;BME280;3567;52.444;13.556;2023-02-19T00:21:32;101049.47;;;4.72;100.00
7052;BME280;3567;52.444;13.556;2023-02-19T00:24:01;101042.53;;;4.71;100.00
7052;BME280;3567;52.444;13.556;2023-02-19T00:26:27;101043.16;;;4.73;100.00
7052;BME280;3567;52.444;13.556;2023-02-19T00:28:54;101040.34;;;4.75;100.00
7052;BME280;3567;52.444;13.556;2023-02-19T00:31:29;101035.03;;;4.75;100.00
7052;BME280;3567;52.444;13.556;2023-02-19T00:33:56;101026.06;;;4.76;100.00
7052;BME280;3567;52.444;13.556;2023-02-19T00:36:23;101033.19;;;4.75;100.00
7052;BME280;3567;52.444;13.556;2023-02-19T00:38:50;101023.41;;;4.76;100.00
7052;BME280;3567;52.444;13.556;2023-02-19T00:41:17;101016.91;;;4.78;100.00
7052;BME280;3567;52.444;13.556;2023-02-19T00:46:10;101004.09;;;4.82;100.00
7052;BME280;3567;52.444;13.556;2023-02-19T00:48:36;101015.53;;;4.82;100.00
7052;BME280;3567;52.444;13.556;2023-02-19T00:51:01;101009.22;;;4.83;100.00
7052;BME280;3567;52.444;13.556;2023-02-19T00:53:26;101015.81;;;4.87;100.00
7052;BME280;3567;52.444;13.556;2023-02-19T00:55:52;101016.63;;;4.88;100.00
7052;BME280;3567;52.444;13.556;2023-02-19T00:58:17;101025.22;;;4.90;100.00
7052;BME280;3567;52.444;13.556;2023-02-19T01:00:42;101020.75;;;4.90;100.00
7052;BME280;3567;52.444;13.556;2023-02-19T01:03:08;101017.09;;;4.91;100.00
7052;BME280;3567;52.444;13.556;2023-02-19T01:05:33;101012.59;;;4.92;100.00
7052;BME280;3567;52.444;13.556;2023-02-19T01:07:58;101012.03;;;4.96;100.00
7052;BME280;3567;52.444;13.556;2023-02-19T01:10:24;101008.19;;;4.99;100.00
7052;BME280;3567;52.444;13.556;2023-02-19T01:12:49;101007.84;;;5.02;100.00
7052;BME280;3567;52.444;13.556;2023-02-19T01:15:14;101000.69;;;5.03;100.00
7052;BME280;3567;52.444;13.556;2023-02-19T01:17:40;100998.22;;;5.01;100.00
7052;BME280;3567;52.444;13.556;2023-02-19T01:20:05;100997.22;;;5.02;100.00
7052;BME280;3567;52.444;13.556;2023-02-19T01:22:31;100989.06;;;5.04;100.00
7052;BME280;3567;52.444;13.556;2023-02-19T01:24:56;100989.06;;;5.04;100.00
7052;BME280;3567;52.444;13.556;2023-02-19T01:27:21;100986.19;;;5.05;100.00
7052;BME280;3567;52.444;13.556;2023-02-19T01:29:46;100974.41;;;5.08;100.00
7052;BME280;3567;52.444;13.556;2023-02-19T01:32:12;100963.38;;;5.11;100.00
7052;BME280;3567;52.444;13.556;2023-02-19T01:34:37;100946.28;;;5.13;100.00
7052;BME280;3567;52.444;13.556;2023-02-19T01:37:03;100939.31;;;5.12;100.00
7052;BME280;3567;52.444;13.556;2023-02-19T01:39:28;100931.53;;;5.11;100.00
7052;BME280;3567;52.444;13.556;2023-02-19T01:41:53;100938.06;;;5.08;100.00
7052;BME280;3567;52.444;13.556;2023-02-19T01:46:45;100950.31;;;5.09;100.00
7052;BME280;3567;52.444;13.556;2023-02-19T01:49:24;100949.28;;;5.10;100.00
7052;BME280;3567;52.444;13.556;2023-02-19T01:54:24;100941.78;;;5.14;100.00
7052;BME280;3567;52.444;13.556;2023-02-19T01:56:51;100939.31;;;5.12;100.00
7052;BME280;3567;52.444;13.556;2023-02-19T01:59:17;100927.03;;;5.11;100.00
7052;BME280;3567;52.444;13.556;2023-02-19T02:01:43;100928.25;;;5.09;100.00
7052;BME280;3567;52.444;13.556;2023-02-19T02:04:10;100922.47;;;5.05;100.00
7052;BME280;3567;52.444;13.556;2023-02-19T02:06:55;100923.88;;;5.01;100.00
7052;BME280;3567;52.444;13.556;2023-02-19T02:09:25;100917.09;;;4.98;100.00
7052;BME280;3567;52.444;13.556;2023-02-19T02:12:10;100914.66;;;4.97;100.00
7052;BME280;3567;52.444;13.556;2023-02-19T02:14:39;100910.72;;;4.93;100.00
7052;BME280;3567;52.444;13.556;2023-02-19T02:23:02;100921.47;;;4.85;100.00
7052;BME280;3567;52.444;13.556;2023-02-19T02:31:03;100915.22;;;4.78;100.00
7052;BME280;3567;52.444;13.556;2023-02-19T02:34:03;100915.63;;;4.75;100.00
7052;BME280;3567;52.444;13.556;2023-02-19T02:36:35;100924.22;;;4.77;100.00
7052;BME280;3567;52.444;13.556;2023-02-19T02:39:03;100926.84;;;4.77;100.00
7052;BME280;3567;52.444;13.556;2023-02-19T02:41:31;100924.56;;;4.73;100.00
7052;BME280;3567;52.444;13.556;2023-02-19T02:43:57;100915.16;;;4.71;100.00
7052;BME280;3567;52.444;13.556;2023-02-19T02:46:29;100911.50;;;4.72;100.00
7052;BME280;3567;52.444;13.556;2023-02-19T02:49:05;100909.03;;;4.70;100.00
7052;BME280;3567;52.444;13.556;2023-02-19T02:51:37;100906.72;;;4.67;100.00
7052;BME280;3567;52.444;13.556;2023-02-19T02:54:13;100904.06;;;4.67;100.00
7052;BME280;3567;52.444;13.556;2023-02-19T02:56:59;100909.78;;;4.64;100.00
7052;BME280;3567;52.444;13.556;2023-02-19T02:59:28;100904.38;;;4.58;100.00
7052;BME280;3567;52.444;13.556;2023-02-19T03:02:16;100912.25;;;4.51;100.00
7052;BME280;3567;52.444;13.556;2023-02-19T03:08:13;100918.41;;;4.37;100.00
7052;BME280;3567;52.444;13.556;2023-02-19T03:10:43;100917.13;;;4.33;100.00
7052;BME280;3567;52.444;13.556;2023-02-19T03:13:22;100916.84;;;4.28;100.00
7052;BME280;3567;52.444;13.556;2023-02-19T03:16:17;100919.84;;;4.25;100.00
7052;BME280;3567;52.444;13.556;2023-02-19T03:19:04;100921.22;;;4.20;100.00
7052;BME280;3567;52.444;13.556;2023-02-19T03:24:15;100929.88;;;4.14;100.00
7052;BME280;3567;52.444;13.556;2023-02-19T03:27:03;100930.81;;;4.07;100.00
7052;BME280;3567;52.444;13.556;2023-02-19T03:29:30;100928.06;;;4.00;100.00
7052;BME280;3567;52.444;13.556;2023-02-19T03:32:03;100929.63;;;3.94;100.00
7052;BME280;3567;52.444;13.556;2023-02-19T03:34:36;100940.09;;;3.88;100.00
7052;BME280;3567;52.444;13.556;2023-02-19T03:37:11;100947.41;;;3.86;100.00
7052;BME280;3567;52.444;13.556;2023-02-19T03:39:37;100935.50;;;3.82;100.00
7052;BME280;3567;52.444;13.556;2023-02-19T03:47:57;100939.59;;;3.70;100.00
7052;BME280;3567;52.444;13.556;2023-02-19T03:50:33;100944.50;;;3.58;100.00
7052;BME280;3567;52.444;13.556;2023-02-19T03:53:16;100950.66;;;3.50;100.00
7052;BME280;3567;52.444;13.556;2023-02-19T03:55:58;100941.78;;;3.43;100.00
7052;BME280;3567;52.444;13.556;2023-02-19T03:58:41;100954.09;;;3.36;100.00
7052;BME280;3567;52.444;13.556;2023-02-19T04:01:30;100948.66;;;3.29;100.00
7052;BME280;3567;52.444;13.556;2023-02-19T04:04:06;100947.53;;;3.24;100.00
7052;BME280;3567;52.444;13.556;2023-02-19T04:06:34;100953.34;;;3.19;100.00
7052;BME280;3567;52.444;13.556;2023-02-19T04:09:03;100951.25;;;3.14;100.00
7052;BME280;3567;52.444;13.556;2023-02-19T04:11:30;100961.19;;;3.12;100.00
7052;BME280;3567;52.444;13.556;2023-02-19T04:16:37;100966.53;;;3.04;100.00
7052;BME280;3567;52.444;13.556;2023-02-19T04:19:09;100974.16;;;2.99;100.00
7052;BME280;3567;52.444;13.556;2023-02-19T04:21:38;100977.13;;;2.96;100.00
7052;BME280;3567;52.444;13.556;2023-02-19T04:24:12;100971.72;;;2.89;100.00
7052;BME280;3567;52.444;13.556;2023-02-19T04:26:39;100974.69;;;2.86;100.00
7052;BME280;3567;52.444;13.556;2023-02-19T04:29:05;100982.81;;;2.85;100.00
7052;BME280;3567;52.444;13.556;2023-02-19T04:31:31;100983.50;;;2.79;100.00
7052;BME280;3567;52.444;13.556;2023-02-19T04:33:59;100983.19;;;2.74;100.00
7052;BME280;3567;52.444;13.556;2023-02-19T04:36:25;100987.84;;;2.72;100.00
7052;BME280;3567;52.444;13.556;2023-02-19T04:38:50;100987.16;;;2.70;100.00
7052;BME280;3567;52.444;13.556;2023-02-19T04:41:16;100996.94;;;2.69;100.00
7052;BME280;3567;52.444;13.556;2023-02-19T04:43:41;100993.47;;;2.69;100.00
7052;BME280;3567;52.444;13.556;2023-02-19T04:46:06;100992.81;;;2.67;100.00
7052;BME280;3567;52.444;13.556;2023-02-19T04:48:32;100995.28;;;2.68;100.00
7052;BME280;3567;52.444;13.556;2023-02-19T04:50:57;101001.41;;;2.69;100.00
7052;BME280;3567;52.444;13.556;2023-02-19T04:53:22;101002.22;;;2.69;100.00
7052;BME280;3567;52.444;13.556;2023-02-19T04:55:48;101002.72;;;2.73;100.00
7052;BME280;3567;52.444;13.556;2023-02-19T04:58:17;101002.03;;;2.71;100.00
7052;BME280;3567;52.444;13.556;2023-02-19T05:00:42;100990.81;;;2.69;100.00
7052;BME280;3567;52.444;13.556;2023-02-19T05:03:08;101006.69;;;2.69;100.00
7052;BME280;3567;52.444;13.556;2023-02-19T05:05:34;101010.34;;;2.68;100.00
7052;BME280;3567;52.444;13.556;2023-02-19T05:07:59;101008.69;;;2.67;100.00
7052;BME280;3567;52.444;13.556;2023-02-19T05:10:25;101006.69;;;2.69;100.00
7052;BME280;3567;52.444;13.556;2023-02-19T05:12:50;101013.63;;;2.70;100.00
7052;BME280;3567;52.444;13.556;2023-02-19T05:15:16;101016.44;;;2.68;100.00
7052;BME280;3567;52.444;13.556;2023-02-19T05:17:41;101015.94;;;2.65;100.00
7052;BME280;3567;52.444;13.556;2023-02-19T05:20:07;101013.00;;;2.59;100.00
7052;BME280;3567;52.444;13.556;2023-02-19T05:22:33;101016.63;;;2.58;100.00
7052;BME280;3567;52.444;13.556;2023-02-19T05:24:58;101007.22;;;2.56;100.00
7052;BME280;3567;52.444;13.556;2023-02-19T05:27:23;101006.72;;;2.52;100.00
7052;BME280;3567;52.444;13.556;2023-02-19T05:29:49;101005.91;;;2.52;100.00
7052;BME280;3567;52.444;13.556;2023-02-19T05:32:14;101007.72;;;2.51;100.00
7052;BME280;3567;52.444;13.556;2023-02-19T05:34:39;101002.44;;;2.51;100.00
7052;BME280;3567;52.444;13.556;2023-02-19T05:37:05;101003.59;;;2.49;100.00
7052;BME280;3567;52.444;13.556;2023-02-19T05:39:30;101010.72;;;2.48;100.00
7052;BME280;3567;52.444;13.556;2023-02-19T05:41:55;101018.81;;;2.47;100.00
7052;BME280;3567;52.444;13.556;2023-02-19T05:44:21;101019.97;;;2.44;100.00
7052;BME280;3567;52.444;13.556;2023-02-19T05:46:46;101021.63;;;2.45;100.00
7052;BME280;3567;52.444;13.556;2023-02-19T05:49:11;101019.00;;;2.45;100.00
7052;BME280;3567;52.444;13.556;2023-02-19T05:51:37;101017.50;;;2.43;100.00
7052;BME280;3567;52.444;13.556;2023-02-19T05:54:02;101022.13;;;2.41;100.00
7052;BME280;3567;52.444;13.556;2023-02-19T05:56:38;101021.47;;;2.39;100.00
7052;BME280;3567;52.444;13.556;2023-02-19T05:59:22;101024.94;;;2.39;100.00
7052;BME280;3567;52.444;13.556;2023-02-19T06:01:49;101031.88;;;2.40;100.00
7052;BME280;3567;52.444;13.556;2023-02-19T06:04:15;101036.50;;;2.38;100.00
7052;BME280;3567;52.444;13.556;2023-02-19T06:06:43;101032.03;;;2.39;100.00
7052;BME280;3567;52.444;13.556;2023-02-19T06:09:09;101037.19;;;2.40;100.00
7052;BME280;3567;52.444;13.556;2023-02-19T06:11:35;101036.81;;;2.43;100.00
7052;BME280;3567;52.444;13.556;2023-02-19T06:14:01;101037.31;;;2.47;100.00
7052;BME280;3567;52.444;13.556;2023-02-19T06:16:26;101035.50;;;2.47;100.00
7052;BME280;3567;52.444;13.556;2023-02-19T06:18:51;101031.84;;;2.48;100.00
7052;BME280;3567;52.444;13.556;2023-02-19T06:21:17;101030.72;;;2.51;100.00
7052;BME280;3567;52.444;13.556;2023-02-19T06:23:43;101035.00;;;2.52;100.00
7052;BME280;3567;52.444;13.556;2023-02-19T06:26:21;101038.47;;;2.52;100.00
7052;BME280;3567;52.444;13.556;2023-02-19T06:28:49;101043.75;;;2.52;100.00
7052;BME280;3567;52.444;13.556;2023-02-19T06:31:16;101040.13;;;2.53;100.00
7052;BME280;3567;52.444;13.556;2023-02-19T06:33:42;101036.31;;;2.56;100.00
7052;BME280;3567;52.444;13.556;2023-02-19T06:36:18;101053.16;;;2.55;100.00
7052;BME280;3567;52.444;13.556;2023-02-19T06:38:44;101054.66;;;2.57;100.00
7052;BME280;3567;52.444;13.556;2023-02-19T06:41:10;101062.25;;;2.60;100.00
7052;BME280;3567;52.444;13.556;2023-02-19T06:43:36;101063.25;;;2.59;100.00
7052;BME280;3567;52.444;13.556;2023-02-19T06:46:03;101067.53;;;2.60;100.00
7052;BME280;3567;52.444;13.556;2023-02-19T06:48:30;101068.53;;;2.59;100.00
7052;BME280;3567;52.444;13.556;2023-02-19T06:50:56;101075.47;;;2.60;100.00
7052;BME280;3567;52.444;13.556;2023-02-19T06:53:22;101073.81;;;2.59;100.00
7052;BME280;3567;52.444;13.556;2023-02-19T06:55:58;101086.03;;;2.60;100.00
7052;BME280;3567;52.444;13.556;2023-02-19T06:58:24;101096.28;;;2.63;100.00
7052;BME280;3567;52.444;13.556;2023-02-19T07:00:50;101102.09;;;2.67;100.00
7052;BME280;3567;52.444;13.556;2023-02-19T07:03:16;101108.84;;;2.70;100.00
7052;BME280;3567;52.444;13.556;2023-02-19T07:05:41;101107.53;;;2.74;100.00
7052;BME280;3567;52.444;13.556;2023-02-19T07:08:08;101122.41;;;2.75;100.00
7052;BME280;3567;52.444;13.556;2023-02-19T07:10:33;101123.03;;;2.77;100.00
7052;BME280;3567;52.444;13.556;2023-02-19T07:12:58;101114.97;;;2.78;100.00
7052;BME280;3567;52.444;13.556;2023-02-19T07:15:24;101121.72;;;2.81;100.00
7052;BME280;3567;52.444;13.556;2023-02-19T07:17:49;101128.00;;;2.80;100.00
7052;BME280;3567;52.444;13.556;2023-02-19T07:20:14;101121.41;;;2.84;100.00
7052;BME280;3567;52.444;13.556;2023-02-19T07:22:40;101125.69;;;2.85;100.00
7052;BME280;3567;52.444;13.556;2023-02-19T07:25:05;101125.19;;;2.89;100.00
7052;BME280;3567;52.444;13.556;2023-02-19T07:27:31;101126.81;;;2.91;100.00
7052;BME280;3567;52.444;13.556;2023-02-19T07:29:56;101134.28;;;2.87;100.00
7052;BME280;3567;52.444;13.556;2023-02-19T07:32:21;101146.53;;;2.88;100.00
7052;BME280;3567;52.444;13.556;2023-02-19T07:34:47;101147.50;;;2.95;100.00
7052;BME280;3567;52.444;13.556;2023-02-19T07:37:12;101148.00;;;2.99;100.00
7052;BME280;3567;52.444;13.556;2023-02-19T07:39:37;101145.00;;;3.02;100.00
7052;BME280;3567;52.444;13.556;2023-02-19T07:42:03;101155.91;;;3.07;100.00
7052;BME280;3567;52.444;13.556;2023-02-19T07:44:28;101155.06;;;3.14;100.00
7052;BME280;3567;52.444;13.556;2023-02-19T07:46:53;101168.31;;;3.14;100.00
7052;BME280;3567;52.444;13.556;2023-02-19T07:49:19;101173.91;;;3.20;100.00
7052;BME280;3567;52.444;13.556;2023-02-19T07:51:44;101178.84;;;3.23;100.00
7052;BME280;3567;52.444;13.556;2023-02-19T07:54:09;101179.00;;;3.29;100.00
7052;BME280;3567;52.444;13.556;2023-02-19T07:56:35;101177.84;;;3.32;100.00
7052;BME280;3567;52.444;13.556;2023-02-19T07:59:01;101179.16;;;3.36;100.00
7052;BME280;3567;52.444;13.556;2023-02-19T08:01:26;101187.75;;;3.38;100.00
7052;BME280;3567;52.444;13.556;2023-02-19T08:04:11;101201.63;;;3.40;100.00
7052;BME280;3567;52.444;13.556;2023-02-19T08:06:37;101202.97;;;3.44;100.00
7052;BME280;3567;52.444;13.556;2023-02-19T08:09:03;101210.72;;;3.46;100.00
7052;BME280;3567;52.444;13.556;2023-02-19T08:11:29;101213.38;;;3.46;100.00
7052;BME280;3567;52.444;13.556;2023-02-19T08:14:13;101217.84;;;3.45;100.00
7052;BME280;3567;52.444;13.556;2023-02-19T08:16:38;101226.59;;;3.54;100.00
7052;BME280;3567;52.444;13.556;2023-02-19T08:19:04;101237.16;;;3.62;100.00
7052;BME280;3567;52.444;13.556;2023-02-19T08:21:29;101237.97;;;3.79;100.00
7052;BME280;3567;52.444;13.556;2023-02-19T08:23:55;101242.91;;;3.82;100.00
7052;BME280;3567;52.444;13.556;2023-02-19T08:26:20;101247.50;;;3.88;100.00
7052;BME280;3567;52.444;13.556;2023-02-19T08:28:47;101259.25;;;3.93;100.00
7052;BME280;3567;52.444;13.556;2023-02-19T08:31:12;101264.84;;;3.99;100.00
7052;BME280;3567;52.444;13.556;2023-02-19T08:33:38;101274.63;;;3.98;100.00
7052;BME280;3567;52.444;13.556;2023-02-19T08:36:05;101271.66;;;4.01;100.00
7052;BME280;3567;52.444;13.556;2023-02-19T08:38:32;101277.72;;;4.10;100.00
7052;BME280;3567;52.444;13.556;2023-02-19T08:41:06;101286.97;;;4.22;100.00
7052;BME280;3567;52.444;13.556;2023-02-19T08:43:32;101271.19;;;4.29;100.00
7052;BME280;3567;52.444;13.556;2023-02-19T08:45:58;101286.41;;;4.35;100.00
7052;BME280;3567;52.444;13.556;2023-02-19T08:48:23;101299.94;;;4.48;100.00
7052;BME280;3567;52.444;13.556;2023-02-19T08:50:53;101297.44;;;4.46;100.00
7052;BME280;3567;52.444;13.556;2023-02-19T08:53:19;101304.31;;;4.64;100.00
7052;BME280;3567;52.444;13.556;2023-02-19T08:55:44;101301.38;;;4.82;100.00
7052;BME280;3567;52.444;13.556;2023-02-19T08:58:09;101310.25;;;4.89;100.00
7052;BME280;3567;52.444;13.556;2023-02-19T09:00:35;101318.53;;;5.17;100.00
7052;BME280;3567;52.444;13.556;2023-02-19T09:03:00;101319.63;;;5.22;100.00
7052;BME280;3567;52.444;13.556;2023-02-19T09:05:25;101323.78;;;5.40;100.00
7052;BME280;3567;52.444;13.556;2023-02-19T09:07:51;101327.63;;;5.37;100.00
7052;BME280;3567;52.444;13.556;2023-02-19T09:10:16;101323.69;;;5.33;100.00
7052;BME280;3567;52.444;13.556;2023-02-19T09:12:42;101337.44;;;5.37;100.00
7052;BME280;3567;52.444;13.556;2023-02-19T09:15:08;101338.66;;;5.49;100.00
7052;BME280;3567;52.444;13.556;2023-02-19T09:17:33;101344.53;;;5.59;100.00
7052;BME280;3567;52.444;13.556;2023-02-19T09:19:58;101336.00;;;5.64;100.00
7052;BME280;3567;52.444;13.556;2023-02-19T09:22:24;101345.09;;;5.69;100.00
7052;BME280;3567;52.444;13.556;2023-02-19T09:24:49;101348.91;;;5.52;100.00
7052;BME280;3567;52.444;13.556;2023-02-19T09:27:16;101352.72;;;5.35;100.00
7052;BME280;3567;52.444;13.556;2023-02-19T09:29:42;101364.59;;;5.24;100.00
7052;BME280;3567;52.444;13.556;2023-02-19T09:32:07;101351.56;;;5.14;100.00
7052;BME280;3567;52.444;13.556;2023-02-19T09:34:33;101347.84;;;5.23;100.00
7052;BME280;3567;52.444;13.556;2023-02-19T09:36:58;101360.69;;;5.72;100.00
7052;BME280;3567;52.444;13.556;2023-02-19T09:39:24;101369.13;;;5.91;100.00
7052;BME280;3567;52.444;13.556;2023-02-19T09:41:50;101368.81;;;5.94;100.00
7052;BME280;3567;52.444;13.556;2023-02-19T09:44:24;101362.69;;;6.08;100.00
7052;BME280;3567;52.444;13.556;2023-02-19T09:46:52;101373.31;;;6.08;100.00
7052;BME280;3567;52.444;13.556;2023-02-19T09:54:24;101386.63;;;5.70;100.00
7052;BME280;3567;52.444;13.556;2023-02-19T09:56:52;101391.66;;;5.65;100.00
7052;BME280;3567;52.444;13.556;2023-02-19T09:59:22;101393.50;;;5.65;100.00
7052;BME280;3567;52.444;13.556;2023-02-19T10:01:54;101393.50;;;5.79;100.00
7052;BME280;3567;52.444;13.556;2023-02-19T10:04:22;101401.22;;;5.89;100.00
7052;BME280;3567;52.444;13.556;2023-02-19T10:06:48;101397.75;;;5.89;100.00
7052;BME280;3567;52.444;13.556;2023-02-19T10:09:20;101406.75;;;5.88;100.00
7052;BME280;3567;52.444;13.556;2023-02-19T10:11:47;101409.00;;;5.91;100.00
7052;BME280;3567;52.444;13.556;2023-02-19T10:14:22;101401.63;;;6.01;100.00
7052;BME280;3567;52.444;13.556;2023-02-19T10:16:51;101411.81;;;6.56;100.00
7052;BME280;3567;52.444;13.556;2023-02-19T10:19:17;101418.53;;;7.03;100.00
7052;BME280;3567;52.444;13.556;2023-02-19T10:21:43;101420.13;;;7.41;100.00
7052;BME280;3567;52.444;13.556;2023-02-19T10:24:17;101435.97;;;7.49;98.94
7052;BME280;3567;52.444;13.556;2023-02-19T10:26:43;101445.13;;;7.40;99.20
7052;BME280;3567;52.444;13.556;2023-02-19T10:29:09;101444.38;;;7.46;99.15
7052;BME280;3567;52.444;13.556;2023-02-19T10:31:35;101444.50;;;7.38;99.53
7052;BME280;3567;52.444;13.556;2023-02-19T10:34:01;101453.38;;;7.45;98.54
7052;BME280;3567;52.444;13.556;2023-02-19T10:36:38;101445.00;;;7.69;94.24
7052;BME280;3567;52.444;13.556;2023-02-19T10:41:46;101466.88;;;7.86;93.23
7052;BME280;3567;52.444;13.556;2023-02-19T10:46:46;101455.78;;;7.40;88.38
7052;BME280;3567;52.444;13.556;2023-02-19T10:49:26;101466.91;;;7.65;85.95
7052;BME280;3567;52.444;13.556;2023-02-19T10:51:55;101475.16;;;7.70;87.08
7052;BME280;3567;52.444;13.556;2023-02-19T10:54:28;101472.78;;;8.09;87.80
7052;BME280;3567;52.444;13.556;2023-02-19T10:59:48;101485.22;;;8.86;83.97
7052;BME280;3567;52.444;13.556;2023-02-19T11:02:18;101492.78;;;9.37;83.35
7052;BME280;3567;52.444;13.556;2023-02-19T11:05:23;101487.09;;;9.67;77.38
7052;BME280;3567;52.444;13.556;2023-02-19T11:07:52;101482.06;;;9.37;77.23
7052;BME280;3567;52.444;13.556;2023-02-19T11:13:25;101493.66;;;9.84;75.38
7052;BME280;3567;52.444;13.556;2023-02-19T11:15:53;101492.03;;;10.10;72.84
7052;BME280;3567;52.444;13.556;2023-02-19T11:18:29;101499.41;;;9.55;72.18
7052;BME280;3567;52.444;13.556;2023-02-19T11:20:58;101507.88;;;9.04;72.76
7052;BME280;3567;52.444;13.556;2023-02-19T11:23:27;101513.66;;;9.01;71.80
7052;BME280;3567;52.444;13.556;2023-02-19T11:25:55;101517.16;;;9.08;74.31
7052;BME280;3567;52.444;13.556;2023-02-19T11:28:36;101513.31;;;9.24;72.80
7052;BME280;3567;52.444;13.556;2023-02-19T11:36:33;101521.56;;;9.35;70.45
7052;BME280;3567;52.444;13.556;2023-02-19T11:39:29;101506.56;;;9.34;68.20
7052;BME280;3567;52.444;13.556;2023-02-19T11:45:40;101526.31;;;8.29;70.61
7052;BME280;3567;52.444;13.556;2023-02-19T11:48:27;101533.94;;;8.04;70.56
7052;BME280;3567;52.444;13.556;2023-02-19T11:50:59;101534.97;;;8.53;72.24
7052;BME280;3567;52.444;13.556;2023-02-19T11:53:29;101524.78;;;9.11;69.61
7052;BME280;3567;52.444;13.556;2023-02-19T11:56:15;101522.06;;;9.59;67.93
7052;BME280;3567;52.444;13.556;2023-02-19T11:59:43;101525.41;;;10.40;66.70
7052;BME280;3567;52.444;13.556;2023-02-19T12:02:14;101511.78;;;10.48;64.56
7052;BME280;3567;52.444;13.556;2023-02-19T12:05:17;101499.03;;;10.11;60.81
7052;BME280;3567;52.444;13.556;2023-02-19T12:08:10;101509.75;;;10.31;62.75
7052;BME280;3567;52.444;13.556;2023-02-19T12:21:46;101531.81;;;9.25;62.10
7052;BME280;3567;52.444;13.556;2023-02-19T12:24:32;101529.53;;;8.74;62.56
7052;BME280;3567;52.444;13.556;2023-02-19T12:30:15;101538.06;;;7.64;65.07
7052;BME280;3567;52.444;13.556;2023-02-19T12:43:52;101561.91;;;7.00;69.35
7052;BME280;3567;52.444;13.556;2023-02-19T12:46:30;101566.34;;;6.93;68.71
7052;BME280;3567;52.444;13.556;2023-02-19T12:49:42;101566.06;;;7.53;66.52
7052;BME280;3567;52.444;13.556;2023-02-19T12:52:17;101561.31;;;7.92;66.09
7052;BME280;3567;52.444;13.556;2023-02-19T12:54:46;101561.78;;;7.95;65.56
7052;BME280;3567;52.444;13.556;2023-02-19T12:57:20;101562.44;;;8.04;65.24
7052;BME280;3567;52.444;13.556;2023-02-19T12:59:52;101562.97;;;7.93;63.14
7052;BME280;3567;52.444;13.556;2023-02-19T13:02:32;101574.91;;;7.75;64.76
7052;BME280;3567;52.444;13.556;2023-02-19T13:08:05;101589.72;;;7.12;67.29
7052;BME280;3567;52.444;13.556;2023-02-19T13:10:42;101592.66;;;7.02;66.69
7052;BME280;3567;52.444;13.556;2023-02-19T13:13:19;101593.13;;;7.06;67.22
7052;BME280;3567;52.444;13.556;2023-02-19T13:15:51;101596.06;;;6.96;67.40
7052;BME280;3567;52.444;13.556;2023-02-19T13:18:23;101599.47;;;6.90;68.44
7052;BME280;3567;52.444;13.556;2023-02-19T13:20:50;101595.44;;;6.79;66.24
7052;BME280;3567;52.444;13.556;2023-02-19T13:23:29;101597.63;;;6.76;68.30
7052;BME280;3567;52.444;13.556;2023-02-19T13:37:12;101595.59;;;7.73;63.89
7052;BME280;3567;52.444;13.556;2023-02-19T13:39:50;101596.19;;;7.90;64.00
7052;BME280;3567;52.444;13.556;2023-02-19T13:42:27;101582.16;;;8.03;61.07
7052;BME280;3567;52.444;13.556;2023-02-19T13:44:55;101589.63;;;8.14;61.61
7052;BME280;3567;52.444;13.556;2023-02-19T13:50:25;101589.22;;;8.10;62.27
7052;BME280;3567;52.444;13.556;2023-02-19T13:52:55;101589.72;;;7.99;63.42
7052;BME280;3567;52.444;13.556;2023-02-19T14:01:05;101615.53;;;7.77;64.51
7052;BME280;3567;52.444;13.556;2023-02-19T14:06:07;101616.97;;;7.95;63.95
7052;BME280;3567;52.444;13.556;2023-02-19T14:08:58;101622.81;;;7.83;64.27
7052;BME280;3567;52.444;13.556;2023-02-19T14:14:35;101628.59;;;7.36;63.90
7052;BME280;3567;52.444;13.556;2023-02-19T14:19:52;101630.13;;;7.45;63.69
7052;BME280;3567;52.444;13.556;2023-02-19T14:27:45;101626.47;;;6.72;64.22
7052;BME280;3567;52.444;13.556;2023-02-19T14:30:11;101644.44;;;6.55;64.31
7052;BME280;3567;52.444;13.556;2023-02-19T14:32:39;101652.66;;;6.46;64.93
7052;BME280;3567;52.444;13.556;2023-02-19T14:35:05;101643.19;;;6.43;64.80
7052;BME280;3567;52.444;13.556;2023-02-19T14:37:30;101641.09;;;6.53;64.94
7052;BME280;3567;52.444;13.556;2023-02-19T14:39:56;101647.63;;;6.51;65.47
7052;BME280;3567;52.444;13.556;2023-02-19T14:42:24;101639.78;;;6.49;65.87
7052;BME280;3567;52.444;13.556;2023-02-19T14:44:58;101652.81;;;6.44;66.37
7052;BME280;3567;52.444;13.556;2023-02-19T14:47:27;101647.03;;;6.41;66.25
7052;BME280;3567;52.444;13.556;2023-02-19T14:52:33;101650.72;;;6.40;65.83
7052;BME280;3567;52.444;13.556;2023-02-19T14:57:51;101656.47;;;6.43;65.62
7052;BME280;3567;52.444;13.556;2023-02-19T15:00:43;101663.59;;;6.51;66.35
7052;BME280;3567;52.444;13.556;2023-02-19T15:03:26;101665.34;;;6.59;66.69
7052;BME280;3567;52.444;13.556;2023-02-19T15:06:18;101654.16;;;6.63;66.05
7052;BME280;3567;52.444;13.556;2023-02-19T15:08:48;101655.91;;;6.71;66.14
7052;BME280;3567;52.444;13.556;2023-02-19T15:11:19;101653.19;;;6.79;66.61
7052;BME280;3567;52.444;13.556;2023-02-19T15:13:50;101665.69;;;6.78;65.69
7052;BME280;3567;52.444;13.556;2023-02-19T15:16:18;101670.72;;;6.73;65.46
7052;BME280;3567;52.444;13.556;2023-02-19T15:18:45;101673.81;;;6.62;65.35
7052;BME280;3567;52.444;13.556;2023-02-19T15:21:21;101667.91;;;6.52;65.25
7052;BME280;3567;52.444;13.556;2023-02-19T15:23:49;101669.16;;;6.41;65.91